Time;durP1;ratioP1;P1;durP2;ratioP2;P2;SDS_P1;SDS_P2;PMS_P1;PMS_P2;Temp;Humidity;BMP_temperature;BMP_pressure;BME280_temperature;BME280_humidity;BME280_pressure;Samples;Min_cycle;Max_cycle;Signal;HPM_P1;HPM_P2
2021/06/27 00:01:56;;;;;;;16.55;5.65;;;;;;;28.69;49.64;100598.47;5004098;28;21062;-64
2021/06/27 00:04:26;;;;;;;18.58;5.72;;;;;;;28.72;49.86;100592.84;5003664;28;20570;-64
2021/06/27 00:06:54;;;;;;;17.17;7.00;;;;;;;28.70;49.81;100591.19;5008322;28;20037;-63
2021/06/27 00:09:22;;;;;;;23.38;6.05;;;;;;;28.70;49.90;100593.91;5009629;28;20034;-63
2021/06/27 00:11:50;;;;;;;22.35;5.97;;;;;;;28.58;50.21;100587.38;5018348;28;20452;-64
2021/06/27 00:14:18;;;;;;;16.42;6.07;;;;;;;28.54;50.37;100594.88;5029076;28;20052;-63
2021/06/27 00:16:45;;;;;;;22.70;6.55;;;;;;;28.59;50.19;100597.28;5010494;28;20125;-63
2021/06/27 00:19:14;;;;;;;19.67;6.07;;;;;;;28.66;49.63;100590.50;5009551;28;20046;-63
2021/06/27 00:21:44;;;;;;;21.17;6.57;;;;;;;28.69;49.35;100595.75;5009245;28;20495;-63
2021/06/27 00:24:12;;;;;;;21.02;5.65;;;;;;;28.63;49.30;100601.56;5009629;28;20061;-63
2021/06/27 00:26:40;;;;;;;15.68;6.43;;;;;;;28.59;49.17;100590.97;5009541;28;20038;-63
2021/06/27 00:29:08;;;;;;;17.45;5.93;;;;;;;28.63;48.62;100596.13;5008901;28;20503;-63
2021/06/27 00:31:35;;;;;;;18.83;6.22;;;;;;;28.64;48.38;100597.00;5008965;28;20088;-63
2021/06/27 00:34:04;;;;;;;18.70;5.95;;;;;;;28.58;47.92;100586.50;5008831;28;20407;-63
2021/06/27 00:36:32;;;;;;;16.92;5.85;;;;;;;28.61;47.14;100583.63;5008965;28;20092;-63
2021/06/27 00:39:02;;;;;;;14.55;5.75;;;;;;;28.60;46.92;100587.31;5009042;28;20037;-63
2021/06/27 00:41:29;;;;;;;20.83;6.20;;;;;;;28.61;47.07;100591.78;5008843;28;20045;-64
2021/06/27 00:43:59;;;;;;;20.55;6.18;;;;;;;28.63;46.62;100587.09;5009672;28;20030;-64
2021/06/27 00:46:27;;;;;;;13.85;5.40;;;;;;;28.62;46.37;100588.94;5029026;28;20380;-64
2021/06/27 00:48:55;;;;;;;22.45;6.45;;;;;;;28.60;46.48;100592.75;5028196;28;20498;-64
2021/06/27 00:51:23;;;;;;;21.35;6.03;;;;;;;28.63;46.52;100590.69;5028812;28;20037;-63
2021/06/27 00:53:52;;;;;;;15.93;5.45;;;;;;;28.66;46.76;100589.63;5028696;28;20056;-63
2021/06/27 00:56:22;;;;;;;16.88;5.63;;;;;;;28.67;47.17;100591.38;5028134;28;20088;-64
2021/06/27 00:58:51;;;;;;;16.85;6.35;;;;;;;28.65;47.45;100587.88;5028365;28;20049;-63
2021/06/27 01:01:19;;;;;;;23.30;6.50;;;;;;;28.63;47.63;100592.53;5028527;28;20033;-64
2021/06/27 01:03:46;;;;;;;22.73;6.00;;;;;;;28.57;47.85;100588.34;5028056;28;20038;-64
2021/06/27 01:06:16;;;;;;;16.75;6.05;;;;;;;28.58;47.94;100581.97;5028408;28;20048;-64
2021/06/27 01:08:43;;;;;;;27.90;7.22;;;;;;;28.55;48.05;100580.28;5027070;28;20041;-63
2021/06/27 01:11:12;;;;;;;17.23;6.15;;;;;;;28.49;48.03;100577.94;5024137;28;20045;-63
2021/06/27 01:13:41;;;;;;;20.52;6.75;;;;;;;28.43;48.48;100588.31;5021794;28;20394;-63
2021/06/27 01:16:09;;;;;;;21.90;6.30;;;;;;;28.42;48.59;100581.16;5022026;28;20038;-63
2021/06/27 01:18:37;;;;;;;16.30;6.10;;;;;;;28.47;48.33;100581.75;5022501;28;20120;-64
2021/06/27 01:21:10;;;;;;;21.73;6.03;;;;;;;28.44;48.46;100582.81;5021434;28;20041;-63
2021/06/27 01:23:39;;;;;;;19.90;5.82;;;;;;;28.36;48.89;100576.97;5022774;28;20053;-64
2021/06/27 01:26:07;;;;;;;23.63;6.40;;;;;;;28.30;48.83;100573.75;5021619;28;20046;-64
2021/06/27 01:28:34;;;;;;;17.30;7.55;;;;;;;28.33;48.85;100574.44;5021681;28;20057;-64
2021/06/27 01:31:03;;;;;;;16.58;6.10;;;;;;;28.41;48.70;100564.00;5021337;28;20050;-64
2021/06/27 01:33:30;;;;;;;19.35;6.15;;;;;;;28.42;48.71;100560.28;5021647;28;20038;-63
2021/06/27 01:35:59;;;;;;;19.70;6.05;;;;;;;28.41;48.67;100566.72;5022566;28;20045;-63
2021/06/27 01:38:31;;;;;;;25.02;6.30;;;;;;;28.38;48.81;100561.44;5023212;28;20510;-63
2021/06/27 01:40:59;;;;;;;17.05;7.55;;;;;;;28.40;48.83;100564.97;5021750;28;20108;-63
2021/06/27 01:43:27;;;;;;;18.58;5.68;;;;;;;28.46;48.66;100567.28;5021948;28;20049;-63
2021/06/27 01:45:58;;;;;;;17.90;5.88;;;;;;;28.42;48.62;100557.56;5002687;28;20093;-63
2021/06/27 01:48:26;;;;;;;18.25;6.97;;;;;;;28.48;48.38;100551.78;5001808;28;20045;-63
2021/06/27 01:50:57;;;;;;;17.27;6.47;;;;;;;28.53;48.37;100560.50;5002633;28;20129;-63
2021/06/27 01:53:30;;;;;;;25.10;7.70;;;;;;;28.57;48.37;100566.63;5001309;28;20045;-64
2021/06/27 01:56:08;;;;;;;23.45;6.82;;;;;;;28.55;48.16;100563.16;5002489;28;20046;-63
2021/06/27 01:58:40;;;;;;;18.58;6.75;;;;;;;28.49;48.41;100568.94;5001397;28;20152;-63
2021/06/27 02:01:14;;;;;;;19.02;6.72;;;;;;;28.47;48.51;100569.03;5002706;28;20042;-64
2021/06/27 02:03:42;;;;;;;21.80;6.82;;;;;;;28.49;48.31;100572.53;5001661;28;20726;-63
2021/06/27 02:06:10;;;;;;;22.08;7.43;;;;;;;28.50;48.13;100570.69;5001569;28;20034;-63
2021/06/27 02:08:42;;;;;;;18.70;6.68;;;;;;;28.41;48.51;100571.28;5001264;28;20078;-63
2021/06/27 02:11:12;;;;;;;14.55;6.57;;;;;;;28.38;48.86;100575.03;5001549;28;20042;-63
2021/06/27 02:13:40;;;;;;;16.25;5.85;;;;;;;28.39;48.27;100573.19;5001816;28;20137;-64
2021/06/27 02:16:09;;;;;;;19.92;6.05;;;;;;;28.38;48.19;100571.44;5001474;28;20411;-64
2021/06/27 02:18:38;;;;;;;21.30;6.80;;;;;;;28.16;48.77;100580.00;5002734;28;20078;-63
2021/06/27 02:21:11;;;;;;;19.98;6.95;;;;;;;28.07;49.14;100572.41;5002594;28;20038;-63
2021/06/27 02:23:41;;;;;;;16.38;5.85;;;;;;;28.09;48.93;100565.88;5009859;28;20108;-63
2021/06/27 02:26:09;;;;;;;18.20;6.60;;;;;;;28.11;48.76;100580.25;5011426;28;20133;-64
2021/06/27 02:28:37;;;;;;;18.60;7.05;;;;;;;28.03;49.00;100584.38;5011025;28;20555;-63
2021/06/27 02:31:05;;;;;;;15.13;6.88;;;;;;;27.91;49.58;100579.69;5010833;28;20042;-64
2021/06/27 02:33:34;;;;;;;22.23;7.40;;;;;;;27.76;49.97;100582.34;5011254;28;20061;-63
2021/06/27 02:36:01;;;;;;;26.20;7.10;;;;;;;27.75;49.76;100585.16;5011548;28;20042;-64
2021/06/27 02:38:29;;;;;;;19.00;6.32;;;;;;;27.80;49.50;100582.16;5012053;28;20129;-64
2021/06/27 02:40:59;;;;;;;24.35;6.80;;;;;;;27.79;49.52;100585.84;5010914;28;20571;-64
2021/06/27 02:43:26;;;;;;;21.73;6.65;;;;;;;27.68;49.59;100586.47;5011231;28;20489;-63
2021/06/27 02:45:54;;;;;;;22.45;6.97;;;;;;;27.67;49.63;100596.47;5011311;28;20117;-63
2021/06/27 02:48:22;;;;;;;21.75;7.40;;;;;;;27.68;49.63;100592.78;5010746;28;20515;-64
2021/06/27 02:50:49;;;;;;;19.17;6.70;;;;;;;27.68;49.80;100591.91;5010735;28;20058;-63
2021/06/27 02:53:17;;;;;;;20.02;7.03;;;;;;;27.44;50.32;100588.72;5010872;28;20104;-63
2021/06/27 02:55:45;;;;;;;22.38;6.75;;;;;;;27.31;50.45;100593.97;5011019;28;20038;-63
2021/06/27 02:58:15;;;;;;;15.70;7.75;;;;;;;27.37;50.61;100593.59;5011509;28;20054;-64
2021/06/27 03:00:43;;;;;;;16.38;7.10;;;;;;;27.34;50.44;100598.34;5010859;28;20057;-63
2021/06/27 03:03:11;;;;;;;19.38;6.80;;;;;;;27.29;50.74;100598.63;5010570;28;20077;-64
2021/06/27 03:05:39;;;;;;;18.45;6.80;;;;;;;27.34;50.34;100604.66;5010648;28;20117;-64
2021/06/27 03:08:06;;;;;;;18.35;6.95;;;;;;;27.30;50.64;100584.09;5010402;28;20050;-64
2021/06/27 03:10:34;;;;;;;22.23;6.68;;;;;;;27.32;50.37;100590.28;5010483;28;20117;-63
2021/06/27 03:13:02;;;;;;;21.10;7.05;;;;;;;27.37;50.00;100587.34;5010791;28;20120;-64
2021/06/27 03:15:31;;;;;;;18.20;6.75;;;;;;;27.47;49.37;100593.97;5010486;28;20068;-63
2021/06/27 03:17:59;;;;;;;21.30;7.03;;;;;;;27.42;49.41;100589.78;5010439;28;20049;-64
2021/06/27 03:20:26;;;;;;;21.65;7.43;;;;;;;27.18;49.98;100592.91;5010535;28;20038;-64
2021/06/27 03:22:54;;;;;;;22.20;7.05;;;;;;;27.15;50.31;100587.66;5010443;28;20144;-63
2021/06/27 03:25:25;;;;;;;18.40;7.03;;;;;;;27.26;50.23;100585.22;5010430;28;20076;-64
2021/06/27 03:27:53;;;;;;;22.75;7.03;;;;;;;27.45;49.58;100584.16;5010517;28;20455;-63
2021/06/27 03:30:21;;;;;;;17.33;6.45;;;;;;;27.56;49.50;100590.78;5009770;28;20049;-64
2021/06/27 03:32:51;;;;;;;19.15;7.50;;;;;;;27.59;49.36;100590.59;5009596;28;20030;-63
2021/06/27 03:35:19;;;;;;;17.45;7.10;;;;;;;27.53;49.64;100590.94;5010286;28;20046;-63
2021/06/27 03:37:53;;;;;;;18.23;6.03;;;;;;;27.48;50.05;100590.31;5009908;28;20046;-63
2021/06/27 03:40:21;;;;;;;24.70;7.03;;;;;;;27.69;49.48;100591.81;5009482;28;20045;-63
2021/06/27 03:42:49;;;;;;;20.80;6.68;;;;;;;27.77;49.53;100600.38;5009950;28;20561;-63
2021/06/27 03:45:17;;;;;;;16.05;6.20;;;;;;;27.89;49.63;100601.50;5009517;28;20330;-63
2021/06/27 03:47:46;;;;;;;19.95;6.63;;;;;;;27.94;49.47;100607.53;5009923;28;20088;-63
2021/06/27 03:50:17;;;;;;;19.45;6.82;;;;;;;28.11;49.05;100607.41;5008738;28;20411;-63
2021/06/27 03:52:45;;;;;;;14.15;6.57;;;;;;;28.27;49.02;100606.53;5010111;28;20407;-64
2021/06/27 03:55:14;;;;;;;19.25;6.70;;;;;;;28.49;49.15;100602.41;5008652;28;20050;-64
2021/06/27 03:57:42;;;;;;;16.67;6.22;;;;;;;28.61;49.11;100602.63;5009903;28;20033;-64
2021/06/27 04:00:11;;;;;;;22.63;7.00;;;;;;;28.71;49.06;100604.69;5009435;28;20129;-63
2021/06/27 04:02:39;;;;;;;18.52;5.95;;;;;;;28.88;49.10;100595.53;5009984;28;20046;-63
2021/06/27 04:05:09;;;;;;;16.25;6.43;;;;;;;29.08;49.02;100600.53;5009228;28;20038;-64
2021/06/27 04:07:38;;;;;;;22.70;6.38;;;;;;;29.25;48.53;100597.63;5009597;28;20053;-63
2021/06/27 04:10:07;;;;;;;16.13;7.32;;;;;;;29.26;47.91;100588.50;5009502;28;20065;-63
2021/06/27 04:12:35;;;;;;;16.63;6.07;;;;;;;29.39;47.78;100588.63;5008752;28;20404;-63
2021/06/27 04:15:02;;;;;;;17.92;6.25;;;;;;;29.54;47.40;100587.59;5009544;28;20085;-64
2021/06/27 04:17:30;;;;;;;23.05;7.10;;;;;;;29.75;47.35;100588.03;5010175;28;20126;-64
2021/06/27 04:19:57;;;;;;;17.70;6.20;;;;;;;29.97;47.40;100588.38;5009133;28;20120;-64
2021/06/27 04:22:25;;;;;;;23.15;7.60;;;;;;;30.24;47.16;100587.47;5009851;28;20690;-64
2021/06/27 04:24:54;;;;;;;18.92;6.10;;;;;;;30.42;46.88;100576.16;5009340;28;20092;-64
2021/06/27 04:27:22;;;;;;;17.33;5.50;;;;;;;30.64;46.84;100575.56;5009256;28;20559;-64
2021/06/27 04:29:49;;;;;;;17.00;5.93;;;;;;;30.73;46.03;100574.88;5009490;28;20038;-64
2021/06/27 04:32:17;;;;;;;12.80;5.55;;;;;;;30.84;45.96;100576.88;5009253;28;20038;-63
2021/06/27 04:34:45;;;;;;;17.88;5.85;;;;;;;31.14;45.85;100582.84;5008579;28;20084;-64
2021/06/27 04:37:12;;;;;;;21.42;6.65;;;;;;;31.42;45.63;100589.03;5008637;28;20049;-64
2021/06/27 04:39:40;;;;;;;16.80;5.38;;;;;;;31.71;44.96;100595.06;5008502;28;20100;-63
2021/06/27 04:42:11;;;;;;;20.55;5.65;;;;;;;31.98;44.55;100601.16;5009344;28;20038;-64
2021/06/27 04:44:38;;;;;;;17.92;5.40;;;;;;;32.25;43.80;100609.16;5007775;28;20411;-64
2021/06/27 04:47:06;;;;;;;20.48;6.03;;;;;;;32.53;42.58;100614.22;5009117;28;20216;-64
2021/06/27 04:49:34;;;;;;;27.80;6.07;;;;;;;32.77;41.41;100605.97;5008748;28;20038;-64
2021/06/27 04:52:02;;;;;;;28.40;6.75;;;;;;;32.95;41.03;100620.91;5008984;28;20488;-64
2021/06/27 04:54:30;;;;;;;17.70;6.25;;;;;;;33.16;40.48;100621.06;5008890;28;20426;-64
2021/06/27 04:56:57;;;;;;;37.28;7.47;;;;;;;33.39;40.24;100633.78;5008453;28;20128;-64
2021/06/27 04:59:26;;;;;;;18.30;5.05;;;;;;;33.73;40.07;100636.53;5007595;28;20411;-64
2021/06/27 05:01:54;;;;;;;19.13;5.10;;;;;;;34.00;40.01;100639.69;5008088;28;20061;-63
2021/06/27 05:04:22;;;;;;;23.75;5.65;;;;;;;34.25;39.35;100639.38;5004682;28;20038;-64
2021/06/27 05:06:49;;;;;;;18.52;4.88;;;;;;;34.48;38.60;100640.13;5008769;28;20657;-64
2021/06/27 05:09:17;;;;;;;14.48;5.28;;;;;;;34.62;37.40;100642.56;5008367;28;20098;-64
2021/06/27 05:11:44;;;;;;;15.52;5.28;;;;;;;34.75;37.25;100639.66;5007957;28;20034;-64
2021/06/27 05:14:13;;;;;;;24.90;5.72;;;;;;;34.98;37.11;100637.66;5005987;28;20447;-64
2021/06/27 05:16:43;;;;;;;16.50;4.80;;;;;;;35.04;36.66;100639.84;5008157;28;20080;-64
2021/06/27 05:19:11;;;;;;;19.08;4.32;;;;;;;35.23;36.00;100637.22;5008689;28;20126;-64
2021/06/27 05:21:39;;;;;;;20.35;5.30;;;;;;;35.56;35.02;100634.19;5008456;28;20041;-64
2021/06/27 05:24:07;;;;;;;21.13;5.00;;;;;;;35.87;34.21;100642.38;5007828;28;20128;-64
2021/06/27 05:26:34;;;;;;;17.83;5.07;;;;;;;36.06;34.04;100649.78;5008283;28;20129;-65
2021/06/27 05:29:02;;;;;;;25.48;6.35;;;;;;;36.29;33.65;100643.06;5007229;28;20081;-64
2021/06/27 05:31:32;;;;;;;17.60;5.30;;;;;;;36.61;33.00;100662.00;5003825;28;20054;-64
2021/06/27 05:34:02;;;;;;;13.43;4.32;;;;;;;36.92;32.61;100671.84;5026700;28;20111;-64
2021/06/27 05:36:29;;;;;;;15.20;4.55;;;;;;;37.00;32.51;100660.97;5026016;28;20568;-63
2021/06/27 05:38:56;;;;;;;20.73;4.70;;;;;;;37.11;32.03;100660.81;5027789;28;20061;-64
2021/06/27 05:41:24;;;;;;;22.80;5.97;;;;;;;37.49;31.28;100664.44;5026492;28;20107;-64
2021/06/27 05:43:52;;;;;;;20.73;5.07;;;;;;;37.81;31.02;100675.91;5025742;28;20124;-65
2021/06/27 05:46:20;;;;;;;19.00;4.43;;;;;;;38.01;30.47;100676.66;5026875;28;20501;-64
2021/06/27 05:48:47;;;;;;;17.42;4.32;;;;;;;38.09;30.51;100679.56;5026126;28;20107;-64
2021/06/27 05:51:16;;;;;;;17.35;4.35;;;;;;;38.16;30.13;100680.66;5025692;28;20132;-64
2021/06/27 05:53:44;;;;;;;16.40;5.07;;;;;;;38.13;30.08;100680.13;5026489;28;20592;-63
2021/06/27 05:56:11;;;;;;;15.68;5.18;;;;;;;38.23;29.69;100683.66;5025893;28;20057;-64
2021/06/27 05:58:40;;;;;;;18.67;4.65;;;;;;;38.26;30.00;100678.72;5025831;28;20037;-63
2021/06/27 06:04:01;;;;;;;20.40;5.30;;;;;;;38.49;30.00;100690.19;5026509;28;20122;-63
2021/06/27 06:06:30;;;;;;;21.02;5.45;;;;;;;38.55;29.82;100680.38;5026461;28;20037;-63
2021/06/27 06:08:58;;;;;;;21.13;5.88;;;;;;;38.51;29.67;100682.63;5026694;28;20041;-63
2021/06/27 06:11:26;;;;;;;19.88;4.90;;;;;;;38.52;29.68;100683.50;5023719;28;20102;-63
2021/06/27 06:13:55;;;;;;;13.68;4.20;;;;;;;38.68;29.50;100676.19;5026746;28;20037;-64
2021/06/27 06:16:24;;;;;;;14.18;4.50;;;;;;;38.56;29.34;100683.00;5025120;28;20041;-63
2021/06/27 06:18:52;;;;;;;16.83;4.25;;;;;;;38.67;29.23;100674.47;5024729;28;20120;-64
2021/06/27 06:21:20;;;;;;;15.82;5.18;;;;;;;38.94;29.07;100672.63;5024695;28;20050;-64
2021/06/27 06:23:49;;;;;;;19.60;4.45;;;;;;;39.12;28.67;100665.19;5025084;28;20099;-64
2021/06/27 06:26:17;;;;;;;17.20;4.53;;;;;;;39.14;28.55;100663.09;5024443;28;20038;-64
2021/06/27 06:28:44;;;;;;;17.40;4.75;;;;;;;39.26;28.15;100666.47;5025292;28;20038;-64
2021/06/27 06:31:12;;;;;;;18.33;4.75;;;;;;;39.44;28.04;100673.69;5025866;28;20047;-63
2021/06/27 06:33:40;;;;;;;14.95;4.65;;;;;;;39.53;27.96;100670.94;5023387;28;20128;-63
2021/06/27 06:36:08;;;;;;;17.52;5.20;;;;;;;39.61;27.80;100671.88;5023895;28;20087;-63
2021/06/27 06:38:35;;;;;;;19.73;5.07;;;;;;;39.49;28.03;100662.13;5023735;28;20047;-63
2021/06/27 06:41:05;;;;;;;14.05;4.60;;;;;;;39.63;27.64;100667.06;5024456;28;20088;-64
2021/06/27 06:43:33;;;;;;;14.57;4.15;;;;;;;39.61;27.69;100659.94;5025029;28;20117;-64
2021/06/27 06:46:02;;;;;;;17.75;4.45;;;;;;;39.69;27.52;100662.75;5023414;28;20076;-63
2021/06/27 06:48:29;;;;;;;16.10;5.35;;;;;;;39.62;27.83;100650.63;5023887;28;20037;-64
2021/06/27 06:50:56;;;;;;;14.43;4.93;;;;;;;39.65;27.79;100644.78;5022414;28;20085;-64
2021/06/27 06:53:25;;;;;;;14.52;4.55;;;;;;;39.67;27.58;100648.22;5025122;28;20061;-64
2021/06/27 06:55:52;;;;;;;11.23;4.68;;;;;;;39.64;27.44;100652.19;5025056;28;20412;-64
2021/06/27 06:58:23;;;;;;;17.88;5.05;;;;;;;39.77;27.61;100651.72;5023583;28;20121;-64
2021/06/27 07:00:53;;;;;;;14.57;4.40;;;;;;;39.81;27.40;100662.31;5025923;28;20080;-65
2021/06/27 07:03:24;;;;;;;15.80;4.65;;;;;;;39.83;27.05;100648.31;5026344;28;20078;-64
2021/06/27 07:05:53;;;;;;;15.10;4.07;;;;;;;39.64;27.01;100646.66;5025786;28;20088;-64
2021/06/27 07:08:23;;;;;;;17.45;4.43;;;;;;;39.60;26.84;100641.63;5028556;28;20521;-64
2021/06/27 07:10:51;;;;;;;16.20;4.28;;;;;;;39.78;26.91;100640.47;5029749;28;20124;-64
2021/06/27 07:13:21;;;;;;;21.15;4.63;;;;;;;39.93;26.91;100632.44;5029954;28;20490;-64
2021/06/27 07:15:49;;;;;;;16.88;4.55;;;;;;;40.01;26.68;100634.34;5028809;28;20495;-64
2021/06/27 07:18:16;;;;;;;14.90;4.00;;;;;;;40.18;26.79;100630.56;5029222;28;20117;-64
2021/06/27 07:20:44;;;;;;;12.25;3.67;;;;;;;40.14;25.97;100626.44;5029822;28;20046;-64
2021/06/27 07:23:11;;;;;;;14.48;3.90;;;;;;;39.74;26.11;100628.03;5028614;28;20464;-64
2021/06/27 07:25:38;;;;;;;17.02;4.43;;;;;;;39.62;26.04;100623.84;5027900;28;20083;-64
2021/06/27 07:28:06;;;;;;;13.52;4.43;;;;;;;39.67;26.29;100620.56;5029765;28;20475;-64
2021/06/27 07:30:35;;;;;;;13.90;4.78;;;;;;;39.80;26.21;100624.63;5029779;28;20056;-64
2021/06/27 07:33:02;;;;;;;15.80;4.50;;;;;;;39.72;26.92;100620.91;5029903;28;20034;-64
2021/06/27 07:35:30;;;;;;;15.73;4.65;;;;;;;39.63;26.81;100635.78;5029872;28;20469;-64
2021/06/27 07:37:58;;;;;;;15.60;4.47;;;;;;;39.59;26.86;100639.88;5029907;28;20041;-64
2021/06/27 07:40:25;;;;;;;14.57;4.93;;;;;;;39.84;26.38;100656.44;5029606;28;20103;-64
2021/06/27 07:42:54;;;;;;;14.20;4.15;;;;;;;40.03;25.87;100651.66;5024989;28;20052;-65
2021/06/27 07:45:21;;;;;;;17.27;4.32;;;;;;;39.96;25.91;100642.31;5029497;28;20049;-64
2021/06/27 07:47:51;;;;;;;12.63;3.85;;;;;;;39.71;25.78;100652.41;5029382;28;20061;-65
2021/06/27 07:50:24;;;;;;;14.90;4.40;;;;;;;39.47;25.63;100655.91;5019613;28;20091;-64
2021/06/27 07:52:52;;;;;;;14.40;4.32;;;;;;;39.20;26.15;100651.41;5028621;28;20578;-64
2021/06/27 07:55:23;;;;;;;17.25;4.78;;;;;;;39.01;26.37;100663.53;5027074;28;20045;-64
2021/06/27 07:57:54;;;;;;;12.07;4.03;;;;;;;39.47;25.93;100666.09;5028967;28;20037;-64
2021/06/27 08:00:30;;;;;;;19.27;4.63;;;;;;;39.79;25.97;100674.53;5029214;28;20046;-64
2021/06/27 08:03:03;;;;;;;12.63;3.97;;;;;;;40.04;25.89;100676.38;5028744;28;20042;-64
2021/06/27 08:05:35;;;;;;;17.50;4.07;;;;;;;40.30;25.42;100676.31;5029127;28;20647;-65
2021/06/27 08:08:04;;;;;;;15.00;3.90;;;;;;;40.31;25.24;100678.00;5028107;28;20037;-65
2021/06/27 08:10:32;;;;;;;16.38;4.65;;;;;;;40.19;25.76;100688.53;5028534;28;20096;-65
2021/06/27 08:12:59;;;;;;;28.20;5.30;;;;;;;40.26;25.44;100688.75;5029440;28;20042;-65
2021/06/27 08:15:27;;;;;;;18.50;4.03;;;;;;;40.41;25.42;100691.72;5028880;28;20105;-66
2021/06/27 08:17:55;;;;;;;16.95;5.10;;;;;;;40.47;25.01;100691.03;5027849;28;20041;-66
2021/06/27 08:20:24;;;;;;;14.18;4.95;;;;;;;40.45;24.86;100693.97;5028902;28;20108;-66
2021/06/27 08:22:53;;;;;;;15.95;3.85;;;;;;;39.95;24.87;100690.38;5028845;28;20068;-66
2021/06/27 08:25:21;;;;;;;17.13;4.22;;;;;;;40.14;24.48;100690.06;5028078;28;20504;-66
2021/06/27 08:27:50;;;;;;;18.38;5.57;;;;;;;39.71;24.55;100696.63;5028608;28;20088;-66
2021/06/27 08:30:18;;;;;;;12.05;4.88;;;;;;;39.87;24.07;100687.56;5028454;28;20124;-66
2021/06/27 08:32:47;;;;;;;21.52;4.32;;;;;;;40.15;24.35;100695.44;5026363;28;20061;-66
2021/06/27 08:35:18;;;;;;;13.23;4.85;;;;;;;40.46;24.17;100698.47;5022065;28;20049;-65
2021/06/27 08:37:49;;;;;;;15.00;4.05;;;;;;;40.59;23.86;100692.41;5025007;28;20068;-65
2021/06/27 08:40:18;;;;;;;13.35;4.00;;;;;;;40.81;23.83;100691.78;5024341;28;20129;-65
2021/06/27 08:42:47;;;;;;;22.60;5.30;;;;;;;40.97;23.50;100696.44;5012507;28;20132;-63
2021/06/27 08:45:17;;;;;;;11.88;3.97;;;;;;;41.09;23.03;100706.16;5026559;28;20057;-63
2021/06/27 08:47:47;;;;;;;11.35;3.60;;;;;;;40.71;23.18;100691.06;5026374;28;20124;-64
2021/06/27 08:50:19;;;;;;;16.02;3.80;;;;;;;40.79;23.56;100698.50;5023807;28;20765;-64
2021/06/27 08:52:48;;;;;;;19.20;4.35;;;;;;;41.01;23.25;100695.06;5020611;28;20116;-63
2021/06/27 08:55:16;;;;;;;11.50;3.20;;;;;;;40.98;22.45;100695.38;5025914;28;20128;-64
2021/06/27 08:57:44;;;;;;;12.18;3.60;;;;;;;40.84;22.54;100693.31;5025194;28;20041;-63
2021/06/27 09:00:13;;;;;;;16.08;3.90;;;;;;;40.98;22.82;100687.94;5024106;28;20068;-64
2021/06/27 09:02:41;;;;;;;14.40;3.30;;;;;;;41.08;22.88;100693.34;5028090;28;20392;-64
2021/06/27 09:05:10;;;;;;;13.80;3.90;;;;;;;40.97;22.74;100675.13;5028808;28;20094;-65
2021/06/27 09:07:39;;;;;;;14.45;3.33;;;;;;;40.94;22.53;100682.94;5028878;28;20038;-64
2021/06/27 09:10:10;;;;;;;18.15;3.40;;;;;;;40.84;22.41;100674.78;5028793;28;20041;-65
2021/06/27 09:12:52;;;;;;;15.10;4.00;;;;;;;40.36;21.83;100675.63;5029109;28;20402;-65
2021/06/27 09:15:38;;;;;;;15.60;3.47;;;;;;;40.06;22.46;100677.06;5028579;28;20061;-64
2021/06/27 09:18:08;;;;;;;15.43;4.25;;;;;;;40.34;22.00;100674.94;5025324;28;20042;-64
2021/06/27 09:20:36;;;;;;;10.45;2.92;;;;;;;40.74;22.12;100664.94;5028036;28;20574;-65
2021/06/27 09:23:05;;;;;;;9.93;3.38;;;;;;;41.05;21.74;100674.25;5028824;28;20422;-67
2021/06/27 09:25:35;;;;;;;13.38;3.17;;;;;;;41.11;21.33;100672.72;5029011;28;20424;-66
2021/06/27 09:28:08;;;;;;;11.55;3.60;;;;;;;40.94;21.22;100667.19;5028300;28;20087;-63
2021/06/27 09:30:38;;;;;;;20.30;3.63;;;;;;;41.02;20.97;100674.63;5027775;28;20030;-65
2021/06/27 09:33:08;;;;;;;12.23;4.07;;;;;;;41.15;21.33;100680.53;5028123;28;20176;-67
2021/06/27 09:35:43;;;;;;;16.73;3.70;;;;;;;41.19;21.46;100681.88;5027911;28;20045;-66
2021/06/27 09:38:42;;;;;;;13.50;3.55;;;;;;;40.76;21.76;100668.41;5026087;28;20099;-67
2021/06/27 09:41:22;;;;;;;20.10;3.28;;;;;;;40.33;22.04;100673.19;4998294;28;20042;-66
2021/06/27 09:43:54;;;;;;;13.65;2.88;;;;;;;40.26;21.73;100676.81;5008493;28;20038;-66
2021/06/27 09:46:32;;;;;;;19.95;4.97;;;;;;;40.33;22.28;100678.72;5009089;28;20618;-66
2021/06/27 09:49:02;;;;;;;14.80;4.18;;;;;;;40.50;22.20;100687.94;5009206;28;20030;-67
2021/06/27 09:51:31;;;;;;;11.68;3.08;;;;;;;40.62;21.79;100683.78;5009097;28;20072;-66
2021/06/27 09:53:59;;;;;;;17.15;3.95;;;;;;;40.53;21.58;100693.09;5008683;28;20066;-66
2021/06/27 09:56:29;;;;;;;13.90;3.85;;;;;;;40.06;22.01;100687.28;5008195;28;20121;-67
2021/06/27 09:59:00;;;;;;;23.15;3.78;;;;;;;39.98;21.70;100679.81;5008982;28;20137;-66
2021/06/27 10:01:29;;;;;;;32.58;5.90;;;;;;;40.14;22.06;100679.00;5009041;28;20081;-66
2021/06/27 10:03:58;;;;;;;12.70;3.17;;;;;;;40.26;21.80;100685.97;5008685;28;20125;-67
2021/06/27 10:06:27;;;;;;;19.42;4.38;;;;;;;40.30;22.46;100686.53;5009077;28;20092;-66
2021/06/27 10:08:55;;;;;;;21.05;3.95;;;;;;;40.28;22.60;100685.81;5008919;28;20046;-66
2021/06/27 10:11:24;;;;;;;21.08;4.05;;;;;;;40.37;22.98;100682.88;5006673;28;20092;-65
2021/06/27 10:13:55;;;;;;;14.00;3.50;;;;;;;40.40;22.65;100695.53;5005051;28;20305;-67
2021/06/27 10:16:27;;;;;;;15.27;3.85;;;;;;;40.31;23.06;100691.84;5007724;28;20042;-66
2021/06/27 10:18:57;;;;;;;15.00;3.55;;;;;;;40.22;23.36;100688.22;5008176;28;20524;-64
2021/06/27 10:21:26;;;;;;;11.93;3.60;;;;;;;40.00;23.35;100687.94;5007764;28;20398;-66
2021/06/27 10:23:54;;;;;;;13.18;4.00;;;;;;;39.97;23.60;100694.69;5007959;28;20069;-66
2021/06/27 10:26:24;;;;;;;15.30;4.40;;;;;;;40.03;24.66;100688.50;5008538;28;20046;-66
2021/06/27 10:28:54;;;;;;;14.30;4.88;;;;;;;40.09;24.94;100682.28;5007382;28;20038;-66
2021/06/27 10:31:24;;;;;;;18.17;5.20;;;;;;;39.80;25.52;100681.81;5007856;28;20053;-66
2021/06/27 10:33:52;;;;;;;25.90;5.80;;;;;;;39.83;25.56;100681.50;5008073;28;20582;-66
2021/06/27 10:36:29;;;;;;;17.52;4.60;;;;;;;39.85;25.27;100679.41;5007700;28;20049;-66
2021/06/27 10:38:58;;;;;;;18.70;4.68;;;;;;;39.76;25.16;100685.94;5006225;28;20038;-66
2021/06/27 10:41:59;;;;;;;14.13;4.10;;;;;;;39.68;25.23;100672.94;5004577;28;20117;-66
2021/06/27 10:44:30;;;;;;;18.23;4.35;;;;;;;39.85;24.43;100671.13;4989180;28;20042;-66
2021/06/27 10:46:59;;;;;;;14.85;4.10;;;;;;;39.74;24.52;100671.41;5000627;28;20048;-66
2021/06/27 10:50:08;;;;;;;14.82;4.47;;;;;;;39.70;24.38;100670.00;5011939;28;20058;-66
2021/06/27 10:53:03;;;;;;;16.70;4.20;;;;;;;39.77;24.43;100669.19;5010575;28;20045;-66
2021/06/27 10:55:41;;;;;;;12.10;3.80;;;;;;;39.93;24.23;100664.75;5012056;28;20428;-66
2021/06/27 10:58:10;;;;;;;14.73;3.58;;;;;;;40.16;23.72;100671.41;5014971;28;20548;-67
2021/06/27 11:01:10;;;;;;;13.50;3.33;;;;;;;39.97;22.93;100667.03;5032000;28;20462;-66
2021/06/27 11:03:41;;;;;;;17.00;3.55;;;;;;;39.78;23.06;100661.72;5032123;28;20057;-66
2021/06/27 11:06:49;;;;;;;11.77;3.42;;;;;;;39.52;23.42;100655.44;5031768;28;20137;-67
2021/06/27 11:09:27;;;;;;;25.08;3.80;;;;;;;39.85;22.82;100662.81;5030517;28;20099;-66
2021/06/27 11:11:57;;;;;;;19.63;3.45;;;;;;;40.00;22.41;100661.16;5031966;28;20495;-66
2021/06/27 11:14:25;;;;;;;15.13;3.63;;;;;;;39.96;22.63;100656.13;5031265;28;20084;-67
2021/06/27 11:17:06;;;;;;;18.52;3.88;;;;;;;40.36;21.66;100656.25;5031814;28;20111;-67
2021/06/27 11:19:35;;;;;;;20.38;3.70;;;;;;;40.58;20.93;100654.69;5031168;28;20538;-67
2021/06/27 11:22:26;;;;;;;13.75;2.65;;;;;;;41.04;19.95;100666.09;5031757;28;20542;-66
2021/06/27 11:24:54;;;;;;;16.92;4.00;;;;;;;41.19;20.29;100658.84;5027776;28;20034;-67
2021/06/27 11:27:33;;;;;;;15.18;3.83;;;;;;;41.24;20.17;100662.81;5030829;28;20045;-67
2021/06/27 11:30:03;;;;;;;21.77;4.43;;;;;;;41.03;20.39;100661.63;5031280;28;20041;-67
2021/06/27 11:32:40;;;;;;;19.27;4.55;;;;;;;41.35;20.28;100664.38;5031463;28;20128;-67